createdAt,value
2023-03-15T00:02:05.605Z,24.50
2023-03-15T00:07:07.275Z,10.20
2023-03-15T00:12:08.965Z,13.80
2023-03-15T00:17:11.902Z,11.60
2023-03-15T00:22:13.384Z,11.80
2023-03-15T00:27:14.912Z,14.20
2023-03-15T00:32:16.433Z,9.40
2023-03-15T00:37:19.871Z,15.00
2023-03-15T00:42:21.868Z,10.20
2023-03-15T00:47:23.498Z,9.00
2023-03-15T00:52:25.209Z,9.40
2023-03-15T00:57:26.906Z,9.50
2023-03-15T01:02:28.438Z,9.00
2023-03-15T01:07:30.022Z,5.80
2023-03-15T01:12:33.993Z,4.30
2023-03-15T01:17:35.563Z,3.20
2023-03-15T01:22:37.146Z,2.80
2023-03-15T01:27:38.761Z,2.00
2023-03-15T01:32:40.453Z,1.50
2023-03-15T01:37:41.957Z,2.30
2023-03-15T01:43:11.293Z,2.20
2023-03-15T01:48:12.866Z,1.90
2023-03-15T01:53:15.033Z,2.30
2023-03-15T01:58:16.774Z,2.10
2023-03-15T02:03:52.233Z,4.60
2023-03-15T02:08:59.001Z,2.80
2023-03-15T02:14:04.128Z,2.60
2023-03-15T02:19:17.998Z,1.40
2023-03-15T02:24:38.253Z,2.10
2023-03-15T02:29:40.056Z,1.70
2023-03-15T02:34:41.540Z,1.90
2023-03-15T02:39:43.232Z,1.60
2023-03-15T02:44:47.579Z,1.90
2023-03-15T02:49:51.398Z,1.80
2023-03-15T02:54:54.296Z,2.30
2023-03-15T02:59:56.980Z,2.50
2023-03-15T03:04:58.477Z,3.60
2023-03-15T03:10:13.537Z,2.50
2023-03-15T03:15:15.019Z,1.80
2023-03-15T03:20:16.624Z,2.30
2023-03-15T03:25:18.363Z,1.60
2023-03-15T03:30:19.886Z,3.40
2023-03-15T03:35:21.394Z,2.10
2023-03-15T03:40:22.867Z,3.50
2023-03-15T03:45:24.361Z,2.20
2023-03-15T03:50:26.199Z,4.50
2023-03-15T03:55:27.760Z,2.70
2023-03-15T04:00:31.502Z,2.80
2023-03-15T04:05:34.075Z,2.00
2023-03-15T04:10:35.589Z,4.80
2023-03-15T04:15:37.054Z,3.60
2023-03-15T04:20:38.625Z,4.40
2023-03-15T04:25:40.497Z,4.00
2023-03-15T04:30:45.184Z,3.80
2023-03-15T04:35:46.787Z,4.20
2023-03-15T04:40:48.418Z,6.50
2023-03-15T04:45:51.817Z,5.80
2023-03-15T04:50:53.346Z,2.90
2023-03-15T04:55:55.072Z,4.30
2023-03-15T05:00:56.619Z,3.90
2023-03-15T05:05:58.217Z,7.00
2023-03-15T05:10:59.712Z,7.80
2023-03-15T05:16:01.234Z,5.30
2023-03-15T05:21:02.844Z,4.10
2023-03-15T05:26:05.017Z,7.70
2023-03-15T05:31:06.805Z,6.30
2023-03-15T05:36:08.424Z,5.10
2023-03-15T05:41:10.176Z,6.80
2023-03-15T05:46:11.795Z,9.60
2023-03-15T05:51:13.405Z,4.70
2023-03-15T05:56:14.945Z,3.90
2023-03-15T06:01:16.443Z,5.00
2023-03-15T06:06:17.969Z,3.80
2023-03-15T06:11:19.457Z,6.10
2023-03-15T06:16:21.053Z,9.20
2023-03-15T06:21:22.681Z,10.60
2023-03-15T06:26:24.553Z,8.40
2023-03-15T06:31:26.087Z,5.00
2023-03-15T06:36:27.782Z,8.40
2023-03-15T06:41:29.413Z,8.90
2023-03-15T06:46:30.980Z,6.20
2023-03-15T06:51:32.501Z,9.70
2023-03-15T06:56:37.337Z,7.80
2023-03-15T07:01:39.167Z,9.10
2023-03-15T07:06:40.949Z,6.90
2023-03-15T07:11:42.822Z,6.40
2023-03-15T07:16:44.657Z,5.30
2023-03-15T07:21:46.728Z,7.20
2023-03-15T07:26:48.239Z,3.60
2023-03-15T07:31:50.460Z,7.10
2023-03-15T07:36:51.964Z,6.30
2023-03-15T07:41:53.489Z,5.50
2023-03-15T07:46:56.057Z,6.90
2023-03-15T07:51:57.840Z,6.50
2023-03-15T07:56:59.635Z,8.60
2023-03-15T08:02:02.925Z,8.30
2023-03-15T08:07:05.068Z,12.80
2023-03-15T08:12:08.107Z,9.90
2023-03-15T08:17:13.133Z,9.20
2023-03-15T08:22:14.772Z,10.70
2023-03-15T08:27:16.481Z,8.70
2023-03-15T08:32:18.961Z,7.20
2023-03-15T08:37:21.084Z,5.40
2023-03-15T08:42:22.715Z,8.30
2023-03-15T08:47:24.257Z,9.50
2023-03-15T08:52:26.690Z,6.40
2023-03-15T08:57:29.291Z,10.70
2023-03-15T09:02:31.153Z,5.20
2023-03-15T09:07:34.082Z,9.30
2023-03-15T09:12:35.718Z,8.10
2023-03-15T09:17:38.294Z,7.60
2023-03-15T09:22:44.005Z,7.50
2023-03-15T09:27:45.955Z,10.90
2023-03-15T09:32:47.908Z,6.20
2023-03-15T09:37:50.991Z,8.80
2023-03-15T09:43:35.785Z,7.60
2023-03-15T09:48:49.743Z,5.10
2023-03-15T09:54:03.543Z,5.00
2023-03-15T09:59:06.848Z,4.50
2023-03-15T10:04:23.372Z,6.30
2023-03-15T10:09:29.241Z,5.90
2023-03-15T10:14:50.026Z,6.10
2023-03-15T10:19:59.320Z,6.40
2023-03-15T10:25:26.280Z,3.50
2023-03-15T10:30:40.466Z,3.90
2023-03-15T10:35:45.429Z,9.00
2023-03-15T10:40:52.609Z,6.00
2023-03-15T10:46:07.981Z,4.20
2023-03-15T10:51:24.612Z,5.40
2023-03-15T10:56:34.994Z,3.70
2023-03-15T11:01:37.564Z,5.70
2023-03-15T11:06:57.985Z,6.20
2023-03-15T11:12:02.034Z,7.30
2023-03-15T11:17:07.225Z,10.40
2023-03-15T11:22:13.764Z,5.50
2023-03-15T11:27:19.042Z,4.80
2023-03-15T11:32:25.444Z,6.70
2023-03-15T11:37:42.877Z,6.30
2023-03-15T11:42:56.333Z,5.00
2023-03-15T11:48:04.354Z,5.30
2023-03-15T11:53:06.995Z,29.50
2023-03-15T11:58:29.706Z,50.20
2023-03-15T12:03:42.643Z,11.60
2023-03-15T12:08:53.974Z,8.20
2023-03-15T12:14:01.878Z,6.20
2023-03-15T12:19:18.556Z,8.40
2023-03-15T12:24:31.759Z,6.50
2023-03-15T12:29:36.245Z,6.00
2023-03-15T12:34:43.702Z,5.20
2023-03-15T12:39:49.112Z,12.80
2023-03-15T12:44:51.546Z,35.60
2023-03-15T12:49:53.152Z,11.20
2023-03-15T12:54:57.453Z,8.20
2023-03-15T13:00:08.196Z,67.80
2023-03-15T13:05:09.677Z,97.80
2023-03-15T13:10:38.468Z,28.60
2023-03-15T13:15:49.830Z,14.80
2023-03-15T13:21:06.440Z,6.80
2023-03-15T13:26:23.775Z,43.80
2023-03-15T13:31:30.701Z,81.40
2023-03-15T13:36:44.329Z,20.70
2023-03-15T13:41:47.734Z,7.80
2023-03-15T13:46:50.998Z,10.50
2023-03-15T13:51:53.411Z,8.80
2023-03-15T13:57:27.800Z,5.20
2023-03-15T14:02:46.633Z,9.70
2023-03-15T14:07:49.965Z,16.50
2023-03-15T14:12:54.044Z,6.10
2023-03-15T14:18:07.614Z,6.40
2023-03-15T14:23:12.886Z,4.80
2023-03-15T14:28:16.632Z,5.80
2023-03-15T14:33:31.471Z,7.00
2023-03-15T14:38:38.979Z,4.00
2023-03-15T14:43:40.506Z,3.90
2023-03-15T14:48:42.436Z,5.90
2023-03-15T14:53:45.817Z,6.10
2023-03-15T14:58:47.382Z,4.30
2023-03-15T15:03:58.337Z,8.00
2023-03-15T15:09:01.570Z,5.20
2023-03-15T15:14:03.126Z,5.80
2023-03-15T15:19:04.745Z,8.20
2023-03-15T15:24:18.557Z,7.60
2023-03-15T15:29:20.156Z,8.30
2023-03-15T15:34:21.687Z,46.10
2023-03-15T15:39:29.606Z,37.00
2023-03-15T15:44:31.153Z,23.20
2023-03-15T15:49:32.857Z,6.80
2023-03-15T15:54:35.817Z,6.90
2023-03-15T15:59:37.388Z,15.80
2023-03-15T16:04:41.182Z,8.80
2023-03-15T16:09:46.506Z,4.30
2023-03-15T16:14:48.110Z,9.00
2023-03-15T16:19:50.889Z,6.00
2023-03-15T16:24:55.050Z,7.30
2023-03-15T16:29:56.692Z,6.30
2023-03-15T16:34:58.208Z,7.50
2023-03-15T16:40:01.707Z,6.00
2023-03-15T16:45:12.525Z,7.50
2023-03-15T16:50:14.676Z,7.10
2023-03-15T16:55:22.032Z,9.50
2023-03-15T17:00:24.688Z,4.70
2023-03-15T17:05:26.922Z,6.70
2023-03-15T17:10:31.200Z,4.10
2023-03-15T17:15:32.752Z,5.90
2023-03-15T17:20:34.320Z,7.50
2023-03-15T17:25:35.947Z,5.40
2023-03-15T17:30:38.158Z,8.30
2023-03-15T17:35:47.282Z,7.30
2023-03-15T17:40:49.361Z,5.10
2023-03-15T17:45:52.326Z,7.30
2023-03-15T17:50:53.821Z,7.90
2023-03-15T17:55:55.382Z,9.20
2023-03-15T18:00:57.032Z,12.00
2023-03-15T18:06:01.472Z,13.70
2023-03-15T18:11:03.008Z,18.00
2023-03-15T18:16:04.829Z,16.80
2023-03-15T18:21:12.133Z,15.90
2023-03-15T18:26:13.802Z,15.00
2023-03-15T18:31:18.617Z,26.80
2023-03-15T18:36:21.842Z,33.10
2023-03-15T18:41:25.016Z,28.10
2023-03-15T18:46:27.124Z,26.40
2023-03-15T18:51:28.800Z,16.70
2023-03-15T18:56:34.591Z,16.30
2023-03-15T19:01:36.209Z,14.20
2023-03-15T19:06:37.829Z,14.40
2023-03-15T19:11:41.828Z,13.60
2023-03-15T19:16:43.400Z,19.60
2023-03-15T19:21:44.947Z,14.80
2023-03-15T19:26:46.431Z,14.60
2023-03-15T19:31:48.005Z,14.70
2023-03-15T19:36:49.632Z,20.20
2023-03-15T19:41:51.154Z,21.90
2023-03-15T19:46:52.948Z,18.60
2023-03-15T19:51:54.510Z,15.60
2023-03-15T19:56:58.617Z,14.60
2023-03-15T20:02:00.180Z,15.30
2023-03-15T20:07:01.745Z,16.50
2023-03-15T20:12:03.894Z,14.00
2023-03-15T20:17:05.859Z,15.40
2023-03-15T20:22:07.490Z,14.30
2023-03-15T20:27:09.601Z,13.50
2023-03-15T20:32:11.162Z,36.80
2023-03-15T20:37:13.609Z,32.40
2023-03-15T20:42:15.234Z,29.30
2023-03-15T20:47:17.303Z,24.10
2023-03-15T20:52:18.921Z,30.70
2023-03-15T20:57:20.831Z,29.10
2023-03-15T21:02:22.813Z,34.20
2023-03-15T21:07:24.516Z,27.60
2023-03-15T21:12:25.994Z,29.10
2023-03-15T21:17:29.181Z,20.80
2023-03-15T21:22:30.734Z,20.00
2023-03-15T21:27:32.848Z,24.40
2023-03-15T21:32:36.230Z,20.20
2023-03-15T21:37:38.225Z,14.30
2023-03-15T21:42:40.953Z,14.90
2023-03-15T21:47:42.913Z,16.70
2023-03-15T21:52:44.994Z,41.60
2023-03-15T21:57:46.749Z,37.30
2023-03-15T22:02:49.439Z,35.90
2023-03-15T22:07:51.597Z,36.80
2023-03-15T22:12:58.053Z,30.90
2023-03-15T22:17:59.887Z,22.70
2023-03-15T22:23:04.324Z,24.80
2023-03-15T22:28:06.483Z,20.90
2023-03-15T22:33:08.763Z,16.30
2023-03-15T22:38:10.550Z,16.80
2023-03-15T22:43:12.189Z,15.40
2023-03-15T22:48:13.702Z,20.20
2023-03-15T22:53:15.186Z,48.10
2023-03-15T22:58:16.665Z,44.90
2023-03-15T23:03:18.705Z,35.10
2023-03-15T23:08:20.710Z,23.10
2023-03-15T23:13:22.418Z,20.60
2023-03-15T23:18:24.167Z,27.50
2023-03-15T23:23:27.412Z,22.30
2023-03-15T23:28:29.446Z,20.70
2023-03-15T23:33:34.129Z,16.70
2023-03-15T23:38:35.744Z,16.80
2023-03-15T23:43:37.238Z,20.10
2023-03-15T23:48:38.725Z,45.40
2023-03-15T23:53:40.199Z,30.80
2023-03-15T23:58:41.768Z,28.50
